Avon By The Sea, New Jersey
Current Conditions -  °F | °C
As of 9:55 AM on Saturday 01 Nov 2014 (Local Time) from KBLM Reporting Station
Overcast Overcast  
Wind Chill: 40°   Ceiling: 6000
Heat Index: 46°   Visibility: 9mi
Dew Point: 36°   Wind: 14mph
Humidity: 66%   Direction: 360°N
Pressure: 29.79"   Gusts: 22mph
Location:  40.19°N, 74.02°W
Report Text: KBLM 011355Z AUTO 36012G19KT 9SM OVC060 08/02 A2979 RMK AO1 P0006
Loading
Personal Weather Stations






























Interactive Weather Map
Tropical Storm Tracking
New forecast layout! Learn more

10-Day Weather Forecast

Advertisements
Track Severe Weather on mobile